Time;durP1;ratioP1;P1;durP2;ratioP2;P2;SDS_P1;SDS_P2;PMS_P1;PMS_P2;Temp;Humidity;BMP_temperature;BMP_pressure;BME280_temperature;BME280_humidity;BME280_pressure;Samples;Min_cycle;Max_cycle;Signal;HPM_P1;HPM_P2
2021/11/26 00:00:58;;;;;;;10.07;9.07;;;;;18.60;99622.00;;;;2077626;28;20261;-44
2021/11/26 00:01:58;;;;;;;13.87;10.43;;;;;18.50;99612.00;;;;2079223;28;20740;-47
2021/11/26 00:02:59;;;;;;;12.93;10.60;;;;;18.60;99605.00;;;;2078758;28;20209;-45
2021/11/26 00:04:00;;;;;;;12.10;10.48;;;;;18.60;99609.00;;;;2073618;28;20221;-44
2021/11/26 00:05:03;;;;;;;11.75;10.55;;;;;18.60;99604.00;;;;2070175;28;20623;-44
2021/11/26 00:06:03;;;;;;;11.65;10.10;;;;;18.50;99599.00;;;;2077475;28;20218;-45
2021/11/26 00:07:04;;;;;;;10.47;9.30;;;;;18.50;99594.00;;;;2077158;28;20223;-44
2021/11/26 00:08:04;;;;;;;11.00;9.63;;;;;18.50;99593.00;;;;2062492;28;20215;-46
2021/11/26 00:09:05;;;;;;;10.57;9.50;;;;;18.50;99589.00;;;;2070644;28;20465;-45
2021/11/26 00:10:06;;;;;;;12.00;10.80;;;;;18.60;99601.00;;;;2070513;28;20218;-45
2021/11/26 00:11:06;;;;;;;11.30;10.20;;;;;18.50;99599.00;;;;2070160;28;20594;-44
2021/11/26 00:12:08;;;;;;;10.97;9.87;;;;;18.60;99598.00;;;;2070680;28;20645;-45
2021/11/26 00:13:10;;;;;;;11.23;10.07;;;;;18.60;99602.00;;;;2067414;28;20562;-44
2021/11/26 00:14:21;;;;;;;11.43;9.90;;;;;18.60;99597.00;;;;2070447;28;20308;-48
2021/11/26 00:15:35;;;;;;;10.30;9.27;;;;;18.60;99597.00;;;;2069496;28;20218;-45
2021/11/26 00:16:39;;;;;;;11.73;10.52;;;;;18.60;99594.00;;;;2077166;28;20217;-46
2021/11/26 00:17:48;;;;;;;11.50;10.25;;;;;18.60;99596.00;;;;2078641;28;20269;-45
2021/11/26 00:18:54;;;;;;;10.45;9.35;;;;;18.50;99591.00;;;;2078435;28;20210;-46
2021/11/26 00:19:54;;;;;;;10.90;9.80;;;;;18.50;99593.00;;;;2072742;28;20217;-45
2021/11/26 00:20:55;;;;;;;10.53;9.47;;;;;18.50;99590.00;;;;2069392;28;20594;-44
2021/11/26 00:22:00;;;;;;;10.25;9.25;;;;;18.50;99579.00;;;;2071024;28;20721;-47
2021/11/26 00:23:02;;;;;;;10.57;9.48;;;;;18.60;99585.00;;;;2076443;28;21032;-46
2021/11/26 00:24:03;;;;;;;10.20;9.20;;;;;18.60;99577.00;;;;2070023;28;20221;-44
2021/11/26 00:25:04;;;;;;;10.25;9.15;;;;;18.50;99577.00;;;;2069812;28;20996;-45
2021/11/26 00:26:04;;;;;;;10.63;9.53;;;;;18.50;99585.00;;;;2074624;28;20209;-44
2021/11/26 00:27:05;;;;;;;10.63;9.63;;;;;18.50;99576.00;;;;2078163;28;20213;-43
2021/11/26 00:28:05;;;;;;;10.60;9.50;;;;;18.50;99573.00;;;;2070386;28;20272;-45
2021/11/26 00:29:06;;;;;;;9.90;8.90;;;;;18.50;99566.00;;;;2069784;28;20297;-46
2021/11/26 00:30:07;;;;;;;10.00;9.00;;;;;18.50;99569.00;;;;2069585;28;20210;-46
2021/11/26 00:31:07;;;;;;;11.52;9.35;;;;;18.50;99571.00;;;;2069308;28;20297;-44
2021/11/26 00:32:08;;;;;;;10.77;9.50;;;;;18.50;99555.00;;;;2078031;28;20236;-44
2021/11/26 00:33:08;;;;;;;10.60;9.50;;;;;18.50;99567.00;;;;2078549;28;20232;-46
2021/11/26 00:34:08;;;;;;;10.97;9.80;;;;;18.50;99556.00;;;;2078339;28;20217;-45
2021/11/26 00:35:09;;;;;;;10.20;9.20;;;;;18.50;99562.00;;;;2076154;28;20225;-44
2021/11/26 00:36:09;;;;;;;11.40;9.40;;;;;18.50;99556.00;;;;2070857;28;20214;-44
2021/11/26 00:37:10;;;;;;;10.57;9.20;;;;;18.50;99554.00;;;;2069165;28;20210;-43
2021/11/26 00:38:11;;;;;;;10.93;9.83;;;;;18.50;99551.00;;;;2068032;28;20214;-47
2021/11/26 00:39:12;;;;;;;9.82;8.88;;;;;18.50;99551.00;;;;2061826;28;20265;-45
2021/11/26 00:40:12;;;;;;;11.07;9.60;;;;;18.50;99537.00;;;;2067191;28;20747;-47
2021/11/26 00:41:12;;;;;;;9.20;8.30;;;;;18.50;99540.00;;;;2077429;28;20558;-46
2021/11/26 00:42:13;;;;;;;10.10;9.10;;;;;18.50;99547.00;;;;2074710;28;20206;-45
2021/11/26 00:43:16;;;;;;;10.90;9.18;;;;;18.50;99536.00;;;;2078642;28;20220;-46
2021/11/26 00:44:17;;;;;;;9.68;8.68;;;;;18.50;99553.00;;;;2077280;28;20221;-45
2021/11/26 00:45:17;;;;;;;10.30;9.20;;;;;18.50;99535.00;;;;2078270;28;20255;-45
2021/11/26 00:46:17;;;;;;;11.00;8.50;;;;;18.50;99541.00;;;;2075523;28;20382;-44
2021/11/26 00:47:18;;;;;;;9.77;8.77;;;;;18.50;99533.00;;;;2079221;28;20313;-43
2021/11/26 00:48:18;;;;;;;10.03;9.03;;;;;18.50;99533.00;;;;2079231;28;20217;-44
2021/11/26 00:49:18;;;;;;;10.50;9.40;;;;;18.50;99537.00;;;;2079037;28;20225;-45
2021/11/26 00:50:19;;;;;;;9.17;8.37;;;;;18.50;99541.00;;;;2078785;28;20218;-45
2021/11/26 00:51:19;;;;;;;9.00;8.20;;;;;18.50;99531.00;;;;2078196;28;20217;-44
2021/11/26 00:52:19;;;;;;;9.80;8.90;;;;;18.50;99525.00;;;;2072026;28;20207;-44
2021/11/26 00:53:20;;;;;;;9.67;8.70;;;;;18.50;99531.00;;;;2074659;28;20257;-44
2021/11/26 00:54:20;;;;;;;9.53;8.53;;;;;18.50;99523.00;;;;2071016;28;20577;-44
2021/11/26 00:55:20;;;;;;;9.13;8.17;;;;;18.50;99524.00;;;;2071294;28;20585;-45
2021/11/26 00:56:21;;;;;;;12.30;9.30;;;;;18.50;99519.00;;;;2079135;28;20648;-48
2021/11/26 00:57:21;;;;;;;10.07;9.10;;;;;18.50;99510.00;;;;2078548;28;20214;-45
2021/11/26 00:58:21;;;;;;;9.90;8.90;;;;;18.50;99512.00;;;;2078951;28;20260;-44
2021/11/26 00:59:22;;;;;;;10.17;9.07;;;;;18.50;99504.00;;;;2078958;28;20217;-44
2021/11/26 01:00:22;;;;;;;9.73;8.50;;;;;18.50;99506.00;;;;2078354;28;20226;-44
2021/11/26 01:01:23;;;;;;;9.30;8.37;;;;;18.50;99495.00;;;;2074800;28;20260;-45
2021/11/26 01:02:23;;;;;;;9.47;8.57;;;;;18.50;99497.00;;;;2078821;28;20598;-47
2021/11/26 01:03:24;;;;;;;9.57;8.67;;;;;18.50;99493.00;;;;2079043;28;20299;-45
2021/11/26 01:04:24;;;;;;;9.37;8.40;;;;;18.50;99502.00;;;;2078774;28;20222;-45
2021/11/26 01:05:25;;;;;;;10.50;9.40;;;;;18.50;99503.00;;;;2071957;28;20286;-45
2021/11/26 01:06:25;;;;;;;10.07;9.00;;;;;18.50;99501.00;;;;2069297;28;20630;-50
2021/11/26 01:07:26;;;;;;;9.13;8.23;;;;;18.50;99502.00;;;;2065651;28;20273;-48
2021/11/26 01:08:26;;;;;;;8.93;8.05;;;;;18.50;99505.00;;;;2073068;28;20233;-43
2021/11/26 01:09:27;;;;;;;8.93;8.03;;;;;18.50;99504.00;;;;2070054;28;20218;-45
2021/11/26 01:10:28;;;;;;;9.93;8.93;;;;;18.50;99497.00;;;;2069414;28;20228;-44
2021/11/26 01:11:28;;;;;;;9.47;8.53;;;;;18.40;99498.00;;;;2070026;28;20214;-44
2021/11/26 01:12:29;;;;;;;8.97;8.07;;;;;18.50;99500.00;;;;2070082;28;20449;-45
2021/11/26 01:13:29;;;;;;;9.93;8.93;;;;;18.50;99498.00;;;;2078045;28;20739;-45
2021/11/26 01:14:29;;;;;;;9.60;8.43;;;;;18.50;99498.00;;;;2077503;28;20218;-44
2021/11/26 01:15:31;;;;;;;9.40;8.40;;;;;18.50;99490.00;;;;2076228;28;20232;-46
2021/11/26 01:16:32;;;;;;;9.77;8.77;;;;;18.50;99476.00;;;;2073748;28;20248;-45
2021/11/26 01:17:32;;;;;;;9.57;8.67;;;;;18.50;99479.00;;;;2078777;28;20339;-47
2021/11/26 01:18:32;;;;;;;9.87;8.60;;;;;18.50;99474.00;;;;2074422;28;20209;-48
2021/11/26 01:19:32;;;;;;;12.00;9.30;;;;;18.50;99474.00;;;;2066057;28;20210;-46
2021/11/26 01:20:34;;;;;;;9.23;8.23;;;;;18.50;99470.00;;;;2069838;28;20285;-45
2021/11/26 01:21:35;;;;;;;9.40;8.50;;;;;18.50;99469.00;;;;2070818;28;20328;-46
2021/11/26 01:22:35;;;;;;;9.88;8.88;;;;;18.50;99464.00;;;;2069588;28;20241;-48
2021/11/26 01:23:36;;;;;;;8.20;7.33;;;;;18.50;99464.00;;;;2069841;28;20221;-44
2021/11/26 01:24:37;;;;;;;9.70;8.70;;;;;18.50;99463.00;;;;2069440;28;20226;-46
2021/11/26 01:25:37;;;;;;;9.00;8.10;;;;;18.50;99468.00;;;;2068865;28;20210;-43
2021/11/26 01:26:37;;;;;;;8.60;7.67;;;;;18.50;99467.00;;;;2070224;28;20305;-44
2021/11/26 01:27:38;;;;;;;9.27;8.10;;;;;18.50;99465.00;;;;2069243;28;20206;-44
2021/11/26 01:28:38;;;;;;;9.70;8.00;;;;;18.50;99466.00;;;;2077894;28;20280;-44
2021/11/26 01:29:38;;;;;;;10.73;8.50;;;;;18.50;99468.00;;;;2070870;28;20785;-45
2021/11/26 01:30:47;;;;;;;10.43;8.97;;;;;18.50;99464.00;;;;2077923;28;20213;-47
2021/11/26 01:31:48;;;;;;;9.57;8.27;;;;;18.50;99464.00;;;;2078424;28;20700;-44
2021/11/26 01:32:48;;;;;;;10.40;8.90;;;;;18.50;99457.00;;;;2076616;28;20222;-43
2021/11/26 01:33:48;;;;;;;8.73;7.73;;;;;18.50;99462.00;;;;2070325;28;20261;-44
2021/11/26 01:34:49;;;;;;;8.93;8.03;;;;;18.50;99454.00;;;;2074005;28;20237;-46
2021/11/26 01:35:54;;;;;;;9.63;7.40;;;;;18.50;99455.00;;;;2069599;28;20280;-47
2021/11/26 01:36:55;;;;;;;9.98;8.82;;;;;18.50;99465.00;;;;2070169;28;20225;-45
2021/11/26 01:37:56;;;;;;;9.07;8.05;;;;;18.50;99464.00;;;;2070499;28;20216;-44
2021/11/26 01:38:56;;;;;;;10.23;8.40;;;;;18.50;99459.00;;;;2070626;28;20237;-44
2021/11/26 01:39:56;;;;;;;9.27;8.37;;;;;18.50;99458.00;;;;2070724;28;20276;-44
2021/11/26 01:40:57;;;;;;;9.50;8.60;;;;;18.50;99470.00;;;;2069721;28;20259;-43
2021/11/26 01:41:57;;;;;;;8.80;7.90;;;;;18.50;99464.00;;;;2070483;28;20217;-44
2021/11/26 01:42:58;;;;;;;10.07;9.13;;;;;18.50;99450.00;;;;2070490;28;20218;-45
2021/11/26 01:43:58;;;;;;;10.13;8.87;;;;;18.50;99454.00;;;;2070613;28;20210;-45
2021/11/26 01:44:59;;;;;;;9.33;8.33;;;;;18.50;99451.00;;;;2074257;28;20596;-43
2021/11/26 01:46:07;;;;;;;8.97;8.10;;;;;18.50;99450.00;;;;2078298;28;20221;-46
2021/11/26 01:47:10;;;;;;;9.30;8.35;;;;;18.50;99450.00;;;;2078524;28;20213;-43
2021/11/26 01:48:11;;;;;;;8.80;7.90;;;;;18.50;99446.00;;;;2069853;28;20213;-46
2021/11/26 01:49:11;;;;;;;9.20;8.30;;;;;18.50;99445.00;;;;2070010;28;20732;-45
2021/11/26 01:50:13;;;;;;;9.37;8.47;;;;;18.50;99435.00;;;;2078500;28;20292;-46
2021/11/26 01:51:15;;;;;;;9.07;8.18;;;;;18.40;99436.00;;;;2077297;28;20213;-44
2021/11/26 01:52:15;;;;;;;8.63;7.70;;;;;18.40;99424.00;;;;2070860;28;20816;-44
2021/11/26 01:53:16;;;;;;;9.10;8.20;;;;;18.50;99422.00;;;;2070598;28;20292;-44
2021/11/26 01:54:17;;;;;;;8.23;7.43;;;;;18.40;99412.00;;;;2069954;28;20214;-44
2021/11/26 01:55:18;;;;;;;9.60;8.70;;;;;18.40;99416.00;;;;2069829;28;20863;-43
2021/11/26 01:56:18;;;;;;;9.50;8.52;;;;;18.40;99358.00;;;;2070288;28;20209;-44
2021/11/26 01:57:19;;;;;;;9.70;8.70;;;;;18.40;99416.00;;;;2072999;28;20863;-46
2021/11/26 01:58:20;;;;;;;9.77;8.43;;;;;18.40;99407.00;;;;2078493;28;20587;-45
2021/11/26 01:59:20;;;;;;;9.68;8.10;;;;;18.50;99417.00;;;;2076095;28;20753;-43
2021/11/26 02:00:23;;;;;;;9.40;8.50;;;;;18.30;99405.00;;;;2075280;28;20214;-45
2021/11/26 02:01:23;;;;;;;9.73;8.20;;;;;18.50;99407.00;;;;2078425;28;20301;-44
2021/11/26 02:02:24;;;;;;;8.93;8.03;;;;;18.50;99406.00;;;;2078462;28;20230;-43
2021/11/26 02:03:24;;;;;;;9.30;8.40;;;;;18.50;99408.00;;;;2075389;28;20218;-45
2021/11/26 02:04:24;;;;;;;9.53;8.60;;;;;18.50;99413.00;;;;2074327;28;20693;-46
2021/11/26 02:05:25;;;;;;;9.10;8.20;;;;;18.50;99395.00;;;;2078462;28;20699;-45
2021/11/26 02:06:25;;;;;;;9.07;8.20;;;;;18.50;99409.00;;;;2077251;28;20678;-44
2021/11/26 02:07:26;;;;;;;8.50;7.70;;;;;18.50;99407.00;;;;2074544;28;20330;-45
2021/11/26 02:08:26;;;;;;;8.77;7.90;;;;;18.40;99401.00;;;;2072217;28;20217;-44
2021/11/26 02:09:28;;;;;;;10.10;9.00;;;;;18.50;99401.00;;;;2070206;28;20276;-45
2021/11/26 02:10:29;;;;;;;9.15;8.25;;;;;18.50;99395.00;;;;2077423;28;20225;-44
2021/11/26 02:11:29;;;;;;;8.95;8.05;;;;;18.40;99393.00;;;;2078583;28;20296;-45
2021/11/26 02:12:31;;;;;;;8.87;8.07;;;;;18.50;99389.00;;;;2078253;28;20216;-45
2021/11/26 02:13:31;;;;;;;9.07;8.20;;;;;18.40;99387.00;;;;2075994;28;20213;-47
2021/11/26 02:14:32;;;;;;;10.07;9.00;;;;;18.50;99384.00;;;;2070404;28;20229;-45
2021/11/26 02:15:40;;;;;;;9.63;8.57;;;;;18.50;99390.00;;;;2069547;28;20301;-45
2021/11/26 02:16:44;;;;;;;8.23;7.43;;;;;18.50;99386.00;;;;2069413;28;20213;-45
2021/11/26 02:17:45;;;;;;;9.05;8.10;;;;;18.40;99380.00;;;;2073419;28;20296;-45
2021/11/26 02:18:49;;;;;;;9.13;8.23;;;;;18.50;99380.00;;;;2078467;28;20232;-44
2021/11/26 02:19:56;;;;;;;9.93;8.90;;;;;18.50;99378.00;;;;2077907;28;20309;-46
2021/11/26 02:20:57;;;;;;;9.30;8.40;;;;;18.50;99376.00;;;;2076963;28;20236;-45
2021/11/26 02:21:57;;;;;;;8.70;7.57;;;;;18.50;99374.00;;;;2074730;28;20751;-44
2021/11/26 02:22:58;;;;;;;8.90;8.10;;;;;18.50;99377.00;;;;2077770;28;20647;-47
2021/11/26 02:23:58;;;;;;;8.87;7.97;;;;;18.50;99367.00;;;;2077445;28;20677;-45
2021/11/26 02:24:58;;;;;;;9.73;8.07;;;;;18.40;99368.00;;;;2070307;28;20214;-45
2021/11/26 02:25:59;;;;;;;9.03;7.60;;;;;18.40;99363.00;;;;2070002;28;20271;-44
2021/11/26 02:26:59;;;;;;;9.57;8.47;;;;;18.40;99358.00;;;;2070310;28;20225;-45
2021/11/26 02:28:01;;;;;;;8.53;7.70;;;;;18.40;99353.00;;;;2069837;28;20229;-44
2021/11/26 02:29:02;;;;;;;8.60;7.63;;;;;18.50;99350.00;;;;2076817;28;20213;-45
2021/11/26 02:30:22;;;;;;;7.65;6.85;;;;;18.40;99352.00;;;;2077980;28;20914;-44
2021/11/26 02:31:23;;;;;;;9.30;8.35;;;;;18.40;99347.00;;;;2069715;28;20836;-45
2021/11/26 02:32:24;;;;;;;8.90;8.00;;;;;18.40;99346.00;;;;2069853;28;20214;-45
2021/11/26 02:33:25;;;;;;;9.18;8.27;;;;;18.40;99347.00;;;;2069482;28;20226;-44
2021/11/26 02:34:25;;;;;;;8.73;7.93;;;;;18.40;99339.00;;;;2076779;28;20217;-45
2021/11/26 02:35:27;;;;;;;8.03;7.20;;;;;18.50;99337.00;;;;2071492;28;20218;-44
2021/11/26 02:36:30;;;;;;;8.68;7.80;;;;;18.40;99343.00;;;;2072831;28;20221;-45
2021/11/26 02:37:32;;;;;;;9.20;8.30;;;;;18.40;99337.00;;;;2061342;28;20226;-45
2021/11/26 02:38:33;;;;;;;8.38;7.57;;;;;18.50;99338.00;;;;2062026;28;20211;-48
2021/11/26 02:39:33;;;;;;;9.30;8.40;;;;;18.40;99337.00;;;;2070403;28;20221;-45
2021/11/26 02:40:34;;;;;;;9.17;7.73;;;;;18.50;99334.00;;;;2073116;28;20237;-45
2021/11/26 02:41:35;;;;;;;8.73;7.90;;;;;18.40;99332.00;;;;2078211;28;20301;-44
2021/11/26 02:42:36;;;;;;;8.70;7.80;;;;;18.40;99323.00;;;;2077904;28;20328;-45
2021/11/26 02:43:37;;;;;;;9.07;8.17;;;;;18.40;99332.00;;;;2075380;28;20720;-46
2021/11/26 02:44:37;;;;;;;8.57;7.73;;;;;18.40;99319.00;;;;2073254;28;20502;-45
2021/11/26 02:45:39;;;;;;;8.47;7.67;;;;;18.40;99323.00;;;;2077854;28;20220;-45
2021/11/26 02:46:40;;;;;;;8.38;7.53;;;;;18.40;99320.00;;;;2076980;28;20210;-44
2021/11/26 02:47:41;;;;;;;9.50;8.03;;;;;18.40;99320.00;;;;2071344;28;20263;-44
2021/11/26 02:48:41;;;;;;;8.60;7.70;;;;;18.40;99317.00;;;;2075080;28;20256;-46
2021/11/26 02:49:42;;;;;;;10.00;7.80;;;;;18.40;99316.00;;;;2077826;28;20553;-45
2021/11/26 02:50:43;;;;;;;8.70;7.80;;;;;18.40;99312.00;;;;2070464;28;20210;-45
2021/11/26 02:51:43;;;;;;;8.90;8.00;;;;;18.40;99312.00;;;;2069747;28;20221;-47
2021/11/26 02:52:44;;;;;;;8.90;8.00;;;;;18.40;99307.00;;;;2071015;28;20218;-44
2021/11/26 02:53:44;;;;;;;8.37;7.27;;;;;18.40;99314.00;;;;2078398;28;20287;-45
2021/11/26 02:54:44;;;;;;;8.50;7.60;;;;;18.40;99315.00;;;;2072205;28;20210;-45
2021/11/26 02:55:45;;;;;;;8.20;7.40;;;;;18.20;99307.00;;;;2069665;28;20216;-47
2021/11/26 02:56:46;;;;;;;8.90;7.88;;;;;18.40;99309.00;;;;2076696;28;20213;-46
2021/11/26 02:57:47;;;;;;;8.73;7.70;;;;;18.40;99310.00;;;;2077712;28;20658;-44
2021/11/26 02:58:48;;;;;;;8.82;7.93;;;;;18.40;99314.00;;;;2077557;28;20271;-46
2021/11/26 02:59:48;;;;;;;7.93;7.13;;;;;18.40;99311.00;;;;2077675;28;20680;-46
2021/11/26 03:00:51;;;;;;;8.60;7.67;;;;;18.40;99300.00;;;;2077138;28;20855;-44
2021/11/26 03:01:51;;;;;;;8.27;7.47;;;;;18.40;99295.00;;;;2077883;28;20214;-45
2021/11/26 03:02:53;;;;;;;9.93;8.20;;;;;18.40;99296.00;;;;2077927;28;20778;-46
2021/11/26 03:03:53;;;;;;;8.07;7.35;;;;;18.40;99297.00;;;;2072137;28;20776;-44
2021/11/26 03:04:54;;;;;;;8.57;7.77;;;;;18.40;99289.00;;;;2069457;28;20227;-47
2021/11/26 03:05:59;;;;;;;8.63;7.73;;;;;18.40;99297.00;;;;2070028;28;20206;-47
2021/11/26 03:07:09;;;;;;;8.40;7.18;;;;;18.40;99290.00;;;;2069643;28;20690;-45
2021/11/26 03:08:10;;;;;;;8.40;7.65;;;;;18.40;99285.00;;;;2069728;28;20225;-44
2021/11/26 03:09:10;;;;;;;8.60;7.70;;;;;18.40;99281.00;;;;2068339;28;20216;-48
2021/11/26 03:10:16;;;;;;;8.27;7.47;;;;;18.40;99284.00;;;;2069129;28;20216;-46
2021/11/26 03:11:16;;;;;;;8.20;7.40;;;;;18.40;99284.00;;;;2068400;28;20222;-46
2021/11/26 03:12:17;;;;;;;8.07;7.27;;;;;18.40;99288.00;;;;2074135;28;20210;-45
2021/11/26 03:13:17;;;;;;;8.87;7.97;;;;;18.40;99290.00;;;;2076081;28;20213;-44
2021/11/26 03:14:18;;;;;;;8.93;7.60;;;;;18.40;99284.00;;;;2069720;28;20309;-44
2021/11/26 03:15:18;;;;;;;8.40;7.60;;;;;18.40;99281.00;;;;2073694;28;20237;-43
2021/11/26 03:16:19;;;;;;;8.43;7.57;;;;;18.40;99282.00;;;;2072799;28;20220;-45
2021/11/26 03:17:19;;;;;;;9.23;8.23;;;;;18.40;99276.00;;;;2078277;28;20244;-45
2021/11/26 03:18:20;;;;;;;8.73;7.90;;;;;18.40;99275.00;;;;2072005;28;20229;-44
2021/11/26 03:19:21;;;;;;;10.38;8.63;;;;;18.40;99259.00;;;;2070531;28;20314;-43
2021/11/26 03:20:24;;;;;;;8.23;7.43;;;;;18.40;99268.00;;;;2071328;28;20225;-43
2021/11/26 03:21:24;;;;;;;8.73;7.93;;;;;18.40;99265.00;;;;2078792;28;20263;-46
2021/11/26 03:22:24;;;;;;;9.40;8.50;;;;;18.40;99265.00;;;;2069082;28;20288;-44
2021/11/26 03:23:25;;;;;;;8.60;7.73;;;;;18.40;99270.00;;;;2079602;28;20288;-46
2021/11/26 03:24:25;;;;;;;9.23;7.80;;;;;18.40;99271.00;;;;2077166;28;20743;-44
2021/11/26 03:25:26;;;;;;;8.90;8.10;;;;;18.40;99263.00;;;;2079060;28;20241;-43
2021/11/26 03:26:26;;;;;;;7.87;7.13;;;;;18.40;99260.00;;;;2079489;28;20241;-44
2021/11/26 03:27:27;;;;;;;8.90;8.00;;;;;18.40;99274.00;;;;2079459;28;20597;-43
2021/11/26 03:28:29;;;;;;;8.30;7.40;;;;;18.40;99253.00;;;;2070997;28;20269;-44
2021/11/26 03:29:30;;;;;;;8.65;7.75;;;;;18.40;99262.00;;;;2070580;28;20234;-45
2021/11/26 03:30:30;;;;;;;8.90;7.77;;;;;18.40;99245.00;;;;2069523;28;20214;-44
2021/11/26 03:31:30;;;;;;;9.00;8.10;;;;;18.40;99263.00;;;;2077501;28;20206;-43
2021/11/26 03:32:31;;;;;;;8.60;7.70;;;;;18.40;99241.00;;;;2070936;28;20214;-46
2021/11/26 03:33:31;;;;;;;8.30;7.50;;;;;18.40;99253.00;;;;2078764;28;20224;-44
2021/11/26 03:34:31;;;;;;;8.30;7.50;;;;;18.40;99254.00;;;;2076596;28;20248;-45
2021/11/26 03:35:32;;;;;;;9.27;8.30;;;;;18.40;99250.00;;;;2075289;28;20217;-44
2021/11/26 03:36:32;;;;;;;8.40;7.60;;;;;18.40;99247.00;;;;2071446;28;20731;-43
2021/11/26 03:37:33;;;;;;;8.60;7.40;;;;;18.40;99235.00;;;;2070377;28;20236;-47
2021/11/26 03:38:34;;;;;;;7.95;7.15;;;;;18.40;99250.00;;;;2068885;28;20232;-45
2021/11/26 03:39:34;;;;;;;8.50;7.67;;;;;18.40;99236.00;;;;2078474;28;20252;-45
2021/11/26 03:40:34;;;;;;;9.13;7.53;;;;;18.40;99236.00;;;;2080378;28;20217;-45
2021/11/26 03:41:35;;;;;;;8.03;7.33;;;;;18.40;99226.00;;;;2078763;28;20222;-43
2021/11/26 03:42:35;;;;;;;8.77;7.87;;;;;18.40;99231.00;;;;2074004;28;20221;-43
2021/11/26 03:43:36;;;;;;;8.80;7.83;;;;;18.40;99223.00;;;;2070769;28;20221;-45
2021/11/26 03:44:36;;;;;;;8.43;7.53;;;;;18.40;99228.00;;;;2070972;28;20225;-44
2021/11/26 03:45:37;;;;;;;8.73;7.83;;;;;18.40;99227.00;;;;2070897;28;20308;-43
2021/11/26 03:46:37;;;;;;;8.37;7.40;;;;;18.40;99219.00;;;;2071631;28;20754;-43
2021/11/26 03:47:38;;;;;;;8.53;7.73;;;;;18.40;99220.00;;;;2073135;28;20272;-43
2021/11/26 03:48:38;;;;;;;9.10;8.20;;;;;18.40;99221.00;;;;2073489;28;20225;-41
2021/11/26 03:49:39;;;;;;;8.90;8.00;;;;;18.40;99221.00;;;;2075648;28;20216;-44
2021/11/26 03:50:39;;;;;;;8.60;7.70;;;;;18.40;99224.00;;;;2070345;28;20578;-44
2021/11/26 03:51:39;;;;;;;8.27;7.43;;;;;18.40;99213.00;;;;2079413;28;20209;-43
2021/11/26 03:52:40;;;;;;;8.57;7.77;;;;;18.40;99219.00;;;;2075592;28;20293;-43
2021/11/26 03:53:40;;;;;;;9.97;7.90;;;;;18.40;99215.00;;;;2079329;28;20283;-42
2021/11/26 03:54:42;;;;;;;8.20;7.40;;;;;18.40;99210.00;;;;2076292;28;20344;-47
2021/11/26 03:55:43;;;;;;;8.93;7.90;;;;;18.40;99218.00;;;;2075916;28;20214;-42
2021/11/26 03:56:43;;;;;;;8.70;7.90;;;;;18.40;99217.00;;;;2079195;28;20673;-44
2021/11/26 03:57:45;;;;;;;9.10;8.07;;;;;18.40;99217.00;;;;2077993;28;20213;-44
2021/11/26 03:58:46;;;;;;;8.43;7.60;;;;;18.40;99209.00;;;;2068305;28;20260;-43
2021/11/26 03:59:46;;;;;;;8.47;7.57;;;;;18.40;99216.00;;;;2071346;28;20623;-45
2021/11/26 04:00:47;;;;;;;9.10;8.30;;;;;18.40;99205.00;;;;2070382;28;20586;-44
2021/11/26 04:01:48;;;;;;;8.48;7.68;;;;;18.40;99200.00;;;;2071150;28;20951;-44
2021/11/26 04:02:48;;;;;;;8.23;7.40;;;;;18.40;99205.00;;;;2079337;28;20217;-43
2021/11/26 04:03:49;;;;;;;7.93;7.03;;;;;18.40;99197.00;;;;2077638;28;20221;-44
2021/11/26 04:04:49;;;;;;;8.77;7.97;;;;;18.40;99196.00;;;;2071418;28;20221;-45
2021/11/26 04:05:50;;;;;;;8.70;7.70;;;;;18.40;99199.00;;;;2076855;28;20217;-44
2021/11/26 04:06:51;;;;;;;9.23;8.32;;;;;18.40;99194.00;;;;2078869;28;20309;-44
2021/11/26 04:07:51;;;;;;;8.77;7.93;;;;;18.40;99191.00;;;;2078398;28;20213;-47
2021/11/26 04:08:52;;;;;;;8.40;7.60;;;;;18.40;99202.00;;;;2070212;28;20511;-44
2021/11/26 04:09:53;;;;;;;8.43;7.70;;;;;18.40;99187.00;;;;2071408;28;20221;-46
2021/11/26 04:10:53;;;;;;;9.00;8.20;;;;;18.40;99197.00;;;;2069185;28;20652;-46
2021/11/26 04:11:53;;;;;;;8.73;7.93;;;;;18.40;99183.00;;;;2074273;28;20209;-46
2021/11/26 04:12:55;;;;;;;8.93;8.13;;;;;18.40;99188.00;;;;2075543;28;20213;-45
2021/11/26 04:13:55;;;;;;;7.97;7.18;;;;;18.40;99185.00;;;;2070068;28;20229;-43
2021/11/26 04:14:55;;;;;;;8.97;7.80;;;;;18.40;99185.00;;;;2071002;28;20221;-43
2021/11/26 04:16:02;;;;;;;8.53;7.63;;;;;18.30;99187.00;;;;2071211;28;20225;-45
2021/11/26 04:17:05;;;;;;;8.65;7.85;;;;;18.30;99184.00;;;;2071087;28;20245;-45
2021/11/26 04:18:06;;;;;;;9.40;8.25;;;;;18.30;99186.00;;;;2075648;28;20209;-43
2021/11/26 04:19:07;;;;;;;9.40;8.50;;;;;18.30;99178.00;;;;2079333;28;20572;-44
2021/11/26 04:20:08;;;;;;;8.77;7.93;;;;;18.30;99177.00;;;;2078867;28;20237;-45
2021/11/26 04:21:08;;;;;;;7.78;7.07;;;;;18.30;99180.00;;;;2077019;28;21003;-46
2021/11/26 04:22:09;;;;;;;8.33;7.53;;;;;18.30;99178.00;;;;2079400;28;20216;-45
2021/11/26 04:23:09;;;;;;;8.90;8.03;;;;;18.40;99174.00;;;;2069058;28;20214;-44
2021/11/26 04:24:10;;;;;;;8.77;7.88;;;;;18.40;99165.00;;;;2079157;28;20220;-46
2021/11/26 04:25:12;;;;;;;8.93;8.03;;;;;18.40;99163.00;;;;2077747;28;20221;-48
2021/11/26 04:26:13;;;;;;;8.88;8.02;;;;;18.40;99157.00;;;;2078521;28;20226;-45
2021/11/26 04:27:13;;;;;;;8.80;7.90;;;;;18.40;99158.00;;;;2066637;28;20217;-45
2021/11/26 04:28:13;;;;;;;8.60;7.60;;;;;18.30;99151.00;;;;2078392;28;20217;-45
2021/11/26 04:29:14;;;;;;;8.50;7.70;;;;;18.30;99158.00;;;;2075538;28;20244;-45
2021/11/26 04:30:15;;;;;;;9.67;8.67;;;;;18.30;99145.00;;;;2079314;28;20214;-44
2021/11/26 04:31:15;;;;;;;8.80;7.95;;;;;18.30;99145.00;;;;2077733;28;20209;-44
2021/11/26 04:32:16;;;;;;;8.90;8.10;;;;;18.30;99142.00;;;;2077918;28;20225;-45
2021/11/26 04:33:16;;;;;;;8.30;7.13;;;;;18.40;99130.00;;;;2078054;28;20229;-44
2021/11/26 04:34:16;;;;;;;9.13;8.30;;;;;18.40;99140.00;;;;2077273;28;20272;-45
2021/11/26 04:35:17;;;;;;;8.50;7.80;;;;;18.30;99134.00;;;;2070016;28;20237;-47
2021/11/26 04:36:17;;;;;;;9.67;8.87;;;;;18.30;99134.00;;;;2077908;28;20237;-45
2021/11/26 04:37:18;;;;;;;8.73;7.93;;;;;18.40;99134.00;;;;2077772;28;20596;-45
2021/11/26 04:38:19;;;;;;;9.60;8.60;;;;;18.40;99136.00;;;;2070118;28;20222;-43
2021/11/26 04:39:19;;;;;;;8.93;8.03;;;;;18.30;99125.00;;;;2077420;28;20252;-45
2021/11/26 04:40:20;;;;;;;8.57;7.70;;;;;18.30;99132.00;;;;2075429;28;20252;-44
2021/11/26 04:41:20;;;;;;;8.23;7.50;;;;;18.30;99126.00;;;;2078015;28;20205;-44
2021/11/26 04:42:20;;;;;;;8.50;7.70;;;;;18.30;99131.00;;;;2078453;28;20228;-44
2021/11/26 04:43:22;;;;;;;8.40;7.60;;;;;18.30;99122.00;;;;2077973;28;20269;-45
2021/11/26 04:44:23;;;;;;;8.82;7.93;;;;;18.30;99139.00;;;;2071474;28;20257;-44
2021/11/26 04:45:23;;;;;;;9.03;8.10;;;;;18.30;99122.00;;;;2070259;28;20654;-46
2021/11/26 04:46:23;;;;;;;8.03;7.33;;;;;18.30;99118.00;;;;2069875;28;20218;-45
2021/11/26 04:47:24;;;;;;;9.13;8.33;;;;;18.30;99114.00;;;;2070373;28;20573;-45
2021/11/26 04:48:24;;;;;;;8.93;8.13;;;;;18.30;99104.00;;;;2071179;28;20248;-44
2021/11/26 04:49:25;;;;;;;8.60;7.80;;;;;18.30;99107.00;;;;2070809;28;20296;-44
2021/11/26 04:50:25;;;;;;;8.80;7.90;;;;;18.30;99105.00;;;;2070050;28;20222;-44
2021/11/26 04:51:25;;;;;;;8.70;7.90;;;;;18.30;99096.00;;;;2070616;28;20214;-46
2021/11/26 04:52:26;;;;;;;8.87;7.97;;;;;18.30;99101.00;;;;2070329;28;20717;-46
2021/11/26 04:53:26;;;;;;;8.40;7.60;;;;;18.30;99098.00;;;;2071467;28;20246;-46
2021/11/26 04:54:27;;;;;;;7.93;7.13;;;;;18.40;99096.00;;;;2078450;28;20206;-45
2021/11/26 04:55:27;;;;;;;8.70;7.90;;;;;18.30;99093.00;;;;2074989;28;20648;-44
2021/11/26 04:56:28;;;;;;;7.67;6.97;;;;;18.30;99093.00;;;;2076963;28;20641;-44
2021/11/26 04:57:29;;;;;;;9.95;8.95;;;;;18.40;99096.00;;;;2078495;28;20210;-43
2021/11/26 04:58:34;;;;;;;8.23;7.40;;;;;18.30;99090.00;;;;2078568;28;20206;-45
2021/11/26 04:59:34;;;;;;;8.35;7.55;;;;;18.30;99089.00;;;;2078356;28;20699;-45
2021/11/26 05:00:35;;;;;;;8.67;7.87;;;;;18.30;99086.00;;;;2074584;28;20221;-45
2021/11/26 05:01:35;;;;;;;9.63;8.63;;;;;18.30;99080.00;;;;2070843;28;20562;-44
2021/11/26 05:02:37;;;;;;;8.47;7.60;;;;;18.40;99085.00;;;;2070571;28;20694;-46
2021/11/26 05:03:37;;;;;;;7.40;6.80;;;;;18.40;99086.00;;;;2070276;28;20449;-43
2021/11/26 05:04:38;;;;;;;8.10;7.30;;;;;18.30;99081.00;;;;2070598;28;20457;-44
2021/11/26 05:05:38;;;;;;;8.27;7.57;;;;;18.30;99085.00;;;;2070055;28;20214;-44